Aérodrome :
LOGIN :

S'inscrire | Disclaimer

   EN    FR    IT 

 










Légende :    VFR   VFR Marginal   IFR   IFR Intensif   IFR Très Intensif
Visi : 
Plafond : 
>= 8 km
>= 3000ft
5 à 8 km
1000 à 3000 ft
1500m à 5 km
500 à 1000 ft
800 à 1500m
200 à 500 ft
< 800m
< 200 ft
Symboles :   Orages  Brouillard  Fortes neiges  Fortes précipitations  Vent > 20 kt
SIGMETs :   Divers  Orages  Givrage  Turbulence  Onde Orograph.  Cendres Volcan.







- Altitude de l'aérodrome : 527 ft
- Code IATA : DBV


LDDU - Dubrovnik

DERNIER METAR :
  • 190800Z 34005KT 280V040 CAVOK 19/01 Q1027 NOSIG

METARs EXPIRÉS :
  • 190730Z 29005KT 250V350 CAVOK 18/M00 Q1027 NOSIG
  • 190700Z 35004KT 280V080 CAVOK 18/01 Q1027 NOSIG
  • 190630Z 01010KT 350V050 CAVOK 16/00 Q1027 NOSIG
  • 190600Z 01007KT 330V060 CAVOK 16/M00 Q1026 NOSIG
  • 190530Z 03007KT 350V080 CAVOK 14/00 Q1026 NOSIG

TAF TAF LDDU
Valide du 19 à 06h jusqu'au 20 à 06h UTC


190525Z 1906/2006 02010KT CAVOK TX20/1911Z TN12/2003Z
BECMG 1908/1910 22009KT
BECMG 1914/1916 30012KT
BECMG 1918/1920 02015KT
Pas de NOTAMs connus pour ce terrain.



MET'MAP, la Météo Aéronautique d'un coup d'oeil ! - Copyright ORBIFLY Décembre 2007 - Disclaimer

ORBIFLY MET'MAP TEAM :

Programmation & Développement : Alexandra Zaïnal
Conception & Développement : Baudouin d'Aumeries
Co-Programmation & Développement : Marc-Olivier Méhu
Soutien technique & logistique : Manuel Goepfert

Contact : metmap@orbifly.com




SOURCES & CREDITS :

   NOAA